Time;durP1;ratioP1;P1;durP2;ratioP2;P2;SDS_P1;SDS_P2;PMS_P1;PMS_P2;Temp;Humidity;BMP_temperature;BMP_pressure;BME280_temperature;BME280_humidity;BME280_pressure;Samples;Min_cycle;Max_cycle;Signal;HPM_P1;HPM_P2
2023/02/07 00:01:16;;;;;;;11.23;4.77;;;1.20;99.90;;;;;;6110462;23;20484;-70
2023/02/07 00:03:44;;;;;;;4.20;3.33;;;1.20;99.90;;;;;;6114915;23;20426;-69
2023/02/07 00:06:14;;;;;;;1.73;1.57;;;1.00;99.90;;;;;;6110429;23;20936;-70
2023/02/07 00:08:43;;;;;;;6.43;4.93;;;0.90;99.90;;;;;;6110982;23;21104;-69
2023/02/07 00:11:15;;;;;;;2.30;1.67;;;0.90;99.90;;;;;;6111374;23;20992;-70
2023/02/07 00:13:44;;;;;;;3.53;3.33;;;0.80;99.90;;;;;;6113028;23;20400;-70
2023/02/07 00:16:11;;;;;;;4.97;4.67;;;0.70;99.90;;;;;;6115591;23;20420;-71
2023/02/07 00:18:38;;;;;;;3.53;2.80;;;0.70;99.90;;;;;;6109760;23;20507;-69
2023/02/07 00:21:07;;;;;;;1.73;1.43;;;0.70;99.90;;;;;;6112237;23;20427;-69
2023/02/07 00:23:35;;;;;;;10.30;3.57;;;0.70;99.90;;;;;;6113270;23;20417;-69
2023/02/07 00:26:03;;;;;;;4.63;2.57;;;0.60;99.90;;;;;;6114999;23;20450;-70
2023/02/07 00:28:30;;;;;;;1.30;1.20;;;0.70;99.90;;;;;;6114784;23;20529;-70
2023/02/07 00:31:05;;;;;;;23.60;5.93;;;0.60;99.90;;;;;;6114138;23;20459;-69
2023/02/07 00:33:32;;;;;;;8.60;1.23;;;0.70;99.90;;;;;;6113732;23;20563;-69
2023/02/07 00:36:00;;;;;;;5.20;3.70;;;0.60;99.90;;;;;;6112706;23;20448;-70
2023/02/07 00:38:28;;;;;;;11.97;5.67;;;0.60;99.90;;;;;;6113331;23;20519;-70
2023/02/07 00:40:55;;;;;;;1.77;1.60;;;0.60;99.90;;;;;;6118501;23;20421;-70
2023/02/07 00:43:23;;;;;;;3.93;3.30;;;0.60;99.90;;;;;;6114797;23;20806;-69
2023/02/07 00:45:49;;;;;;;4.60;4.20;;;0.60;99.90;;;;;;6113713;23;20460;-69
2023/02/07 00:48:18;;;;;;;11.27;5.47;;;0.60;99.90;;;;;;6108578;23;20807;-71
2023/02/07 00:50:45;;;;;;;10.77;5.93;;;0.70;99.90;;;;;;6111768;23;20410;-69
2023/02/07 00:53:12;;;;;;;8.40;4.83;;;0.70;99.90;;;;;;6113047;23;20386;-70
2023/02/07 00:55:39;;;;;;;2.10;1.90;;;0.60;99.90;;;;;;6113742;23;20409;-71
2023/02/07 00:58:06;;;;;;;17.33;4.67;;;0.70;99.90;;;;;;6113938;23;20443;-70
2023/02/07 01:00:32;;;;;;;9.53;5.33;;;0.70;99.90;;;;;;6112359;23;20531;-70
2023/02/07 01:02:59;;;;;;;8.30;4.83;;;0.60;99.90;;;;;;6114201;23;20411;-70
2023/02/07 01:05:28;;;;;;;9.90;5.17;;;0.70;99.90;;;;;;6109274;23;21029;-69
2023/02/07 01:07:55;;;;;;;9.63;4.97;;;0.70;99.90;;;;;;6110861;23;20842;-70
2023/02/07 01:10:23;;;;;;;5.87;3.87;;;0.70;99.90;;;;;;6110890;23;20732;-70
2023/02/07 01:12:50;;;;;;;12.80;6.37;;;0.70;99.90;;;;;;6113756;23;20752;-70
2023/02/07 01:15:17;;;;;;;10.93;4.83;;;0.80;99.90;;;;;;6111616;23;20413;-71
2023/02/07 01:17:45;;;;;;;6.40;3.40;;;0.70;99.90;;;;;;6116704;23;20961;-71
2023/02/07 01:20:12;;;;;;;14.13;5.93;;;0.80;99.90;;;;;;6112731;23;21065;-70
2023/02/07 01:22:41;;;;;;;6.20;4.97;;;0.80;99.90;;;;;;6112915;23;20994;-71
2023/02/07 01:25:09;;;;;;;13.33;7.00;;;0.80;99.90;;;;;;6104746;23;20506;-69
2023/02/07 01:27:36;;;;;;;5.67;4.33;;;0.80;99.90;;;;;;6111145;23;20502;-69
2023/02/07 01:30:04;;;;;;;6.20;4.43;;;0.80;99.90;;;;;;6109751;23;20721;-68
2023/02/07 01:32:32;;;;;;;12.10;4.17;;;0.80;99.90;;;;;;6111917;23;20512;-70
2023/02/07 01:34:59;;;;;;;8.90;6.53;;;0.80;99.90;;;;;;6110920;23;20398;-71
2023/02/07 01:37:27;;;;;;;11.40;3.73;;;0.70;99.90;;;;;;6107807;23;20404;-70
2023/02/07 01:39:55;;;;;;;6.27;4.50;;;0.70;99.90;;;;;;6109902;23;20477;-69
2023/02/07 01:42:27;;;;;;;6.23;3.93;;;0.70;99.90;;;;;;6108462;23;20439;-69
2023/02/07 01:45:24;;;;;;;10.07;5.20;;;0.60;99.90;;;;;;6110852;23;20406;-70
2023/02/07 01:47:52;;;;;;;15.57;6.50;;;0.60;99.90;;;;;;6111328;23;20448;-68
2023/02/07 01:50:22;;;;;;;9.00;4.23;;;0.60;99.90;;;;;;6115294;23;20414;-70
2023/02/07 01:52:49;;;;;;;5.40;4.47;;;0.70;99.90;;;;;;6110367;23;20432;-68
2023/02/07 01:55:25;;;;;;;13.43;7.13;;;0.60;99.90;;;;;;6110711;23;20575;-69
2023/02/07 01:57:52;;;;;;;12.53;5.03;;;0.50;99.90;;;;;;6113535;23;20393;-70
2023/02/07 02:00:20;;;;;;;9.53;4.93;;;0.50;99.90;;;;;;6109333;23;20444;-70
2023/02/07 02:02:47;;;;;;;9.90;4.43;;;0.50;99.90;;;;;;6111193;23;20433;-70
2023/02/07 02:05:16;;;;;;;12.20;5.77;;;0.50;99.90;;;;;;6110743;23;20414;-70
2023/02/07 02:07:42;;;;;;;12.57;3.90;;;0.50;99.90;;;;;;6111530;23;20480;-70
2023/02/07 02:10:14;;;;;;;5.57;5.17;;;0.50;99.90;;;;;;6108848;23;20409;-70
2023/02/07 02:13:05;;;;;;;5.93;3.83;;;0.50;99.90;;;;;;6110761;23;20441;-70
2023/02/07 02:15:40;;;;;;;6.10;5.33;;;0.60;99.90;;;;;;6108623;23;20406;-69
2023/02/07 02:18:33;;;;;;;4.90;2.83;;;0.50;99.90;;;;;;6115651;23;20384;-70
2023/02/07 02:21:45;;;;;;;9.20;5.90;;;0.50;99.90;;;;;;6113440;23;20520;-70
2023/02/07 02:24:47;;;;;;;12.63;5.23;;;0.40;99.90;;;;;;6062017;23;1128972;-70
2023/02/07 02:27:30;;;;;;;8.20;3.93;;;0.40;99.90;;;;;;6116851;23;20260;-70
2023/02/07 02:30:30;;;;;;;11.87;5.53;;;0.40;99.90;;;;;;6114245;23;20435;-69
2023/02/07 02:33:24;;;;;;;5.60;3.30;;;0.40;99.90;;;;;;6116226;23;20995;-70
2023/02/07 02:36:00;;;;;;;18.90;5.57;;;0.40;99.90;;;;;;6116121;23;20456;-69
2023/02/07 02:38:34;;;;;;;9.07;4.47;;;0.40;99.90;;;;;;6123050;23;20395;-71
2023/02/07 02:41:05;;;;;;;10.27;4.40;;;0.30;99.90;;;;;;6115353;23;20412;-69
2023/02/07 02:43:41;;;;;;;4.40;3.90;;;0.20;99.90;;;;;;6115527;23;20806;-70
2023/02/07 02:46:14;;;;;;;11.63;3.90;;;0.10;99.90;;;;;;6108420;23;20909;-70
2023/02/07 02:48:43;;;;;;;7.23;3.60;;;0.00;99.90;;;;;;6113973;23;20788;-71
2023/02/07 02:51:10;;;;;;;6.03;5.30;;;-0.10;99.90;;;;;;6116684;23;20428;-70
2023/02/07 02:53:38;;;;;;;6.33;4.47;;;-0.20;99.90;;;;;;6119288;23;20992;-71
2023/02/07 02:56:39;;;;;;;12.33;6.50;;;-0.20;99.90;;;;;;6120014;23;20453;-70
2023/02/07 02:59:39;;;;;;;4.70;4.30;;;-0.20;99.90;;;;;;6115209;23;20446;-70
2023/02/07 03:02:20;;;;;;;12.00;4.90;;;-0.30;99.90;;;;;;6109591;23;21055;-70
2023/02/07 03:05:07;;;;;;;13.57;5.67;;;-0.30;99.90;;;;;;6113080;23;20392;-70
2023/02/07 03:07:45;;;;;;;11.67;5.57;;;-0.20;99.90;;;;;;6113585;23;20730;-71
2023/02/07 03:10:25;;;;;;;6.13;4.13;;;-0.10;99.90;;;;;;6114326;23;20393;-70
2023/02/07 03:12:57;;;;;;;5.13;3.40;;;-0.10;99.90;;;;;;6114879;23;20800;-71
2023/02/07 03:15:33;;;;;;;4.77;4.27;;;-0.10;99.90;;;;;;6113686;23;20396;-70
2023/02/07 03:18:05;;;;;;;7.07;5.13;;;-0.10;99.90;;;;;;6114831;23;20392;-71
2023/02/07 03:20:37;;;;;;;7.53;4.30;;;-0.20;99.90;;;;;;6113901;23;20487;-70
2023/02/07 03:23:06;;;;;;;6.77;4.07;;;-0.20;99.90;;;;;;6113736;23;20890;-70
2023/02/07 03:25:33;;;;;;;7.53;4.13;;;-0.30;99.90;;;;;;6115212;23;20417;-71
2023/02/07 03:28:01;;;;;;;9.27;5.80;;;-0.60;99.90;;;;;;6115630;23;20515;-70
2023/02/07 03:30:33;;;;;;;5.03;4.53;;;-0.70;99.90;;;;;;6116833;23;20416;-71
2023/02/07 03:33:10;;;;;;;6.27;4.53;;;-0.70;99.90;;;;;;6117141;23;20455;-71
2023/02/07 03:35:44;;;;;;;7.00;6.43;;;-0.70;99.90;;;;;;6115999;23;20387;-70
2023/02/07 03:38:11;;;;;;;8.03;5.87;;;-0.80;99.90;;;;;;6115113;23;20419;-70
2023/02/07 03:40:44;;;;;;;13.97;5.50;;;-0.70;99.90;;;;;;6116595;23;20403;-71
2023/02/07 03:43:14;;;;;;;5.13;4.10;;;-0.70;99.90;;;;;;6116194;23;20407;-71
2023/02/07 03:45:42;;;;;;;13.83;6.37;;;-0.50;99.90;;;;;;6110587;23;20401;-69
2023/02/07 03:48:09;;;;;;;8.73;4.10;;;-0.50;99.90;;;;;;6109711;23;20884;-70
2023/02/07 03:50:36;;;;;;;9.97;4.80;;;-0.50;99.90;;;;;;6116176;23;21005;-71
2023/02/07 03:53:05;;;;;;;8.10;5.73;;;-0.60;99.90;;;;;;6112956;23;20472;-70
2023/02/07 03:55:32;;;;;;;12.47;5.70;;;-0.70;99.90;;;;;;6114479;23;20846;-71
2023/02/07 03:58:00;;;;;;;12.10;5.60;;;-0.70;99.90;;;;;;6113221;23;20416;-69
2023/02/07 04:00:27;;;;;;;8.30;4.80;;;-0.60;99.90;;;;;;6108979;23;20447;-71
2023/02/07 04:02:54;;;;;;;9.10;5.00;;;-0.50;99.90;;;;;;6111370;23;20457;-69
2023/02/07 04:05:21;;;;;;;10.50;7.73;;;-0.60;99.90;;;;;;6115356;23;20434;-71
2023/02/07 04:07:48;;;;;;;6.23;4.53;;;-0.60;99.90;;;;;;6111702;23;21027;-69
2023/02/07 04:10:17;;;;;;;9.43;4.50;;;-0.70;99.90;;;;;;6116013;23;21299;-70
2023/02/07 04:12:44;;;;;;;6.43;4.43;;;-0.60;99.90;;;;;;6112492;23;20768;-71
2023/02/07 04:15:12;;;;;;;6.20;4.00;;;-0.60;99.90;;;;;;6103442;23;21067;-71
2023/02/07 04:17:39;;;;;;;12.90;4.80;;;-0.70;99.90;;;;;;6112701;23;20418;-71
2023/02/07 04:20:07;;;;;;;5.13;3.23;;;-0.70;99.90;;;;;;6115049;23;20499;-69
2023/02/07 04:22:34;;;;;;;9.07;4.97;;;-0.70;99.90;;;;;;6113612;23;20511;-69
2023/02/07 04:25:01;;;;;;;10.23;4.67;;;-0.80;99.90;;;;;;6111494;23;20390;-70
2023/02/07 04:27:29;;;;;;;9.97;4.77;;;-0.70;99.90;;;;;;6113018;23;20394;-70
2023/02/07 04:29:56;;;;;;;6.57;4.17;;;-0.70;99.90;;;;;;6109335;23;20447;-69
2023/02/07 04:32:24;;;;;;;9.80;4.30;;;-0.80;99.90;;;;;;6110201;23;20469;-68
2023/02/07 04:34:51;;;;;;;14.63;5.20;;;-0.80;99.90;;;;;;6112037;23;20419;-69
2023/02/07 04:37:18;;;;;;;8.90;4.20;;;-0.70;99.90;;;;;;6110785;23;20483;-70
2023/02/07 04:39:45;;;;;;;13.93;6.07;;;-0.70;99.90;;;;;;6057679;23;20881;-69
2023/02/07 04:42:12;;;;;;;8.23;4.70;;;-0.80;99.90;;;;;;6110711;23;21204;-69
2023/02/07 04:44:41;;;;;;;5.30;3.63;;;-0.80;99.90;;;;;;6112510;23;20462;-69
2023/02/07 04:47:08;;;;;;;8.07;4.13;;;-0.80;99.90;;;;;;6117693;23;20462;-70
2023/02/07 04:49:34;;;;;;;8.57;4.80;;;-0.90;99.90;;;;;;6120099;23;20476;-70
2023/02/07 04:52:01;;;;;;;11.70;4.00;;;-0.90;99.90;;;;;;6062349;23;20422;-70
2023/02/07 04:54:28;;;;;;;4.50;4.10;;;-0.90;99.90;;;;;;6113649;23;20889;-69
2023/02/07 04:56:55;;;;;;;5.30;4.07;;;-0.90;99.90;;;;;;6108510;23;20441;-68
2023/02/07 04:59:22;;;;;;;10.23;8.87;;;-1.00;99.90;;;;;;6111652;23;20420;-69
2023/02/07 05:01:51;;;;;;;8.73;5.10;;;-0.90;99.90;;;;;;6112062;23;20439;-69
2023/02/07 05:04:18;;;;;;;6.40;5.40;;;-1.00;99.90;;;;;;6112868;23;20444;-70
2023/02/07 05:06:45;;;;;;;10.60;5.53;;;-0.90;99.90;;;;;;6110459;23;20882;-71
2023/02/07 05:09:13;;;;;;;8.20;6.40;;;-0.90;99.90;;;;;;6112808;23;20463;-70
2023/02/07 05:11:42;;;;;;;5.53;4.80;;;-0.90;99.90;;;;;;6114458;23;20469;-70
2023/02/07 05:14:09;;;;;;;9.43;4.30;;;-1.00;99.90;;;;;;6113406;23;20787;-69
2023/02/07 05:16:36;;;;;;;6.70;3.10;;;-1.00;99.90;;;;;;6114858;23;20477;-69
2023/02/07 05:19:05;;;;;;;7.90;4.73;;;-1.00;99.90;;;;;;6116286;23;20407;-71
2023/02/07 05:21:32;;;;;;;11.53;5.93;;;-1.00;99.90;;;;;;6108313;23;20907;-70
2023/02/07 05:23:59;;;;;;;7.80;5.87;;;-0.90;99.90;;;;;;6110603;23;20490;-71
2023/02/07 05:26:26;;;;;;;17.53;5.80;;;-1.00;99.90;;;;;;6108823;23;20461;-71
2023/02/07 05:28:59;;;;;;;7.30;3.20;;;-0.90;99.90;;;;;;6117064;23;20805;-71
2023/02/07 05:33:02;;;;;;;7.73;4.00;;;-0.80;99.90;;;;;;6112789;23;20872;-70
2023/02/07 05:34:14;;;;;;;6.27;3.83;;;-0.80;99.90;;;;;;6116355;23;20389;-71
2023/02/07 05:36:41;;;;;;;8.60;4.67;;;-0.90;99.90;;;;;;6115687;23;20524;-71
2023/02/07 05:39:08;;;;;;;6.03;5.10;;;-0.90;99.90;;;;;;6118677;23;20785;-71
2023/02/07 05:41:35;;;;;;;10.37;5.70;;;-1.00;99.90;;;;;;6114330;23;20479;-71
2023/02/07 05:44:02;;;;;;;10.20;6.40;;;-0.90;99.90;;;;;;6114652;23;20428;-70
2023/02/07 05:46:29;;;;;;;5.03;4.53;;;-0.90;99.90;;;;;;6116175;23;20430;-71
2023/02/07 05:48:56;;;;;;;8.13;4.20;;;-0.90;99.90;;;;;;6114273;23;20497;-70
2023/02/07 05:51:24;;;;;;;5.43;4.17;;;-0.90;99.90;;;;;;6107161;23;20939;-71
2023/02/07 05:53:51;;;;;;;10.30;4.23;;;-0.90;99.90;;;;;;6117176;23;20447;-71
2023/02/07 05:56:18;;;;;;;6.87;5.83;;;-0.80;99.90;;;;;;6116311;23;20427;-71
2023/02/07 05:58:45;;;;;;;8.23;5.30;;;-0.80;99.90;;;;;;6114929;23;20440;-71
2023/02/07 06:01:12;;;;;;;10.37;6.13;;;-0.80;99.90;;;;;;6117426;23;20468;-70
2023/02/07 06:03:39;;;;;;;6.97;4.40;;;-0.80;99.90;;;;;;6114072;23;20447;-71
2023/02/07 06:06:07;;;;;;;8.33;5.83;;;-0.70;99.90;;;;;;6120451;23;20746;-71
2023/02/07 06:08:35;;;;;;;8.63;5.57;;;-0.70;99.90;;;;;;6123104;23;20946;-71
2023/02/07 06:11:02;;;;;;;10.77;4.90;;;-0.90;99.90;;;;;;6116462;23;20431;-71
2023/02/07 06:13:29;;;;;;;9.90;5.30;;;-0.90;99.90;;;;;;6118397;23;20418;-71
2023/02/07 06:15:56;;;;;;;7.33;5.47;;;-0.80;99.90;;;;;;6119079;23;20392;-70
2023/02/07 06:18:23;;;;;;;13.43;4.93;;;-0.80;99.90;;;;;;6121550;23;20502;-70
2023/02/07 06:20:53;;;;;;;5.60;4.87;;;-0.90;99.90;;;;;;6120981;23;20509;-71
2023/02/07 06:23:21;;;;;;;8.00;6.70;;;-1.00;99.90;;;;;;6121223;23;20721;-71
2023/02/07 06:25:50;;;;;;;6.97;4.93;;;-1.00;99.90;;;;;;6118925;23;20463;-71
2023/02/07 06:28:17;;;;;;;10.37;4.93;;;-1.10;99.90;;;;;;6119585;23;20486;-70
2023/02/07 06:30:45;;;;;;;5.00;3.57;;;-1.00;99.90;;;;;;6118525;23;20943;-71
2023/02/07 06:33:12;;;;;;;10.70;4.93;;;-1.10;99.90;;;;;;6120936;23;20758;-70
2023/02/07 06:35:45;;;;;;;9.70;5.73;;;-1.00;99.90;;;;;;6121630;23;20442;-71
2023/02/07 06:38:13;;;;;;;16.67;7.73;;;-1.00;99.90;;;;;;6120918;23;20388;-70
2023/02/07 06:40:40;;;;;;;11.13;7.20;;;-0.90;99.90;;;;;;6119625;23;20408;-70
2023/02/07 06:43:09;;;;;;;13.43;7.13;;;-0.90;99.90;;;;;;6117471;23;20790;-70
2023/02/07 06:45:36;;;;;;;12.00;7.90;;;-0.90;99.90;;;;;;6068348;23;20386;-70
2023/02/07 06:48:04;;;;;;;19.37;9.00;;;-0.90;99.90;;;;;;6121224;23;20470;-70
2023/02/07 06:50:31;;;;;;;12.00;5.93;;;-0.90;99.90;;;;;;6121460;23;20451;-70
2023/02/07 06:53:00;;;;;;;10.40;5.43;;;-1.00;99.90;;;;;;6120007;23;20962;-71
2023/02/07 06:55:28;;;;;;;6.13;3.17;;;-0.90;99.90;;;;;;6116901;23;20558;-70
2023/02/07 06:57:55;;;;;;;12.00;7.10;;;-1.00;99.90;;;;;;6119216;23;20422;-71
2023/02/07 07:00:24;;;;;;;13.60;7.50;;;-1.10;99.90;;;;;;6119369;23;20511;-71
2023/02/07 07:02:52;;;;;;;16.33;6.73;;;-1.10;99.90;;;;;;6119626;23;20820;-70
2023/02/07 07:05:20;;;;;;;13.70;7.83;;;-1.10;99.90;;;;;;6120377;23;20415;-71
2023/02/07 07:07:47;;;;;;;12.13;4.67;;;-1.00;99.90;;;;;;6094525;23;20403;-70
2023/02/07 07:10:14;;;;;;;8.10;4.60;;;-1.00;99.90;;;;;;6124758;23;20494;-70
2023/02/07 07:12:42;;;;;;;11.83;6.40;;;-1.10;99.90;;;;;;6121398;23;20770;-70
2023/02/07 07:15:09;;;;;;;11.33;5.60;;;-1.00;99.90;;;;;;6069383;23;20416;-71
2023/02/07 07:17:38;;;;;;;10.57;8.07;;;-1.00;99.90;;;;;;6120586;23;21024;-71
2023/02/07 07:20:06;;;;;;;6.30;3.87;;;-1.10;99.90;;;;;;6121196;23;20808;-71
2023/02/07 07:22:33;;;;;;;11.70;6.17;;;-1.00;99.90;;;;;;6115284;23;20464;-71
2023/02/07 07:25:00;;;;;;;10.13;4.80;;;-1.10;99.90;;;;;;6120263;23;20423;-70
2023/02/07 07:27:28;;;;;;;11.60;4.97;;;-1.20;99.90;;;;;;6121632;23;20462;-70
2023/02/07 07:29:54;;;;;;;4.63;4.23;;;-1.10;99.90;;;;;;6116757;23;21066;-70
2023/02/07 07:32:21;;;;;;;9.23;6.80;;;-1.00;99.90;;;;;;6117971;23;20795;-71
2023/02/07 07:34:50;;;;;;;16.97;7.43;;;-0.90;99.90;;;;;;6121493;23;20797;-71
2023/02/07 07:37:17;;;;;;;10.73;7.63;;;-0.80;99.90;;;;;;6119473;23;20442;-71
2023/02/07 07:39:45;;;;;;;11.43;6.60;;;-0.70;99.90;;;;;;6119582;23;20418;-70
2023/02/07 07:42:13;;;;;;;14.73;7.47;;;-0.60;99.90;;;;;;6117148;23;20515;-71
2023/02/07 07:44:40;;;;;;;17.90;8.87;;;-0.50;99.90;;;;;;6120522;23;20420;-71
2023/02/07 07:47:07;;;;;;;14.67;6.80;;;-0.40;99.90;;;;;;6118622;23;20891;-71
2023/02/07 07:49:34;;;;;;;20.87;8.50;;;-0.40;99.90;;;;;;6119434;23;20471;-71
2023/02/07 07:52:02;;;;;;;10.90;6.73;;;-0.20;99.90;;;;;;6121024;23;20439;-71
2023/02/07 07:54:29;;;;;;;10.37;6.57;;;0.00;99.90;;;;;;6119738;23;20421;-71
2023/02/07 07:56:56;;;;;;;11.47;8.57;;;0.20;99.90;;;;;;6119076;23;20789;-71
2023/02/07 07:59:24;;;;;;;11.63;9.37;;;0.30;99.90;;;;;;6119684;23;20403;-71
2023/02/07 08:01:52;;;;;;;8.40;6.23;;;0.40;99.90;;;;;;6120172;23;20495;-71
2023/02/07 08:04:20;;;;;;;12.63;5.73;;;0.40;99.90;;;;;;6119202;23;20421;-71
2023/02/07 08:06:47;;;;;;;13.93;5.07;;;0.60;99.90;;;;;;6119785;23;20833;-71
2023/02/07 08:09:16;;;;;;;11.23;5.90;;;0.60;99.90;;;;;;6119172;23;20440;-71
2023/02/07 08:11:43;;;;;;;8.43;5.77;;;0.60;99.90;;;;;;6119850;23;20403;-71
2023/02/07 08:14:10;;;;;;;9.00;7.13;;;0.60;99.90;;;;;;6117167;23;20959;-71
2023/02/07 08:16:37;;;;;;;12.43;6.23;;;0.70;99.90;;;;;;6118273;23;20395;-70
2023/02/07 08:19:04;;;;;;;9.13;5.90;;;0.80;99.90;;;;;;6123215;23;20419;-71
2023/02/07 08:21:31;;;;;;;13.63;6.40;;;0.90;99.90;;;;;;6121120;23;20775;-70
2023/02/07 08:23:58;;;;;;;7.40;4.47;;;0.90;99.90;;;;;;6115866;23;20393;-71
2023/02/07 08:26:26;;;;;;;8.77;4.13;;;0.80;99.90;;;;;;6121245;23;20411;-71
2023/02/07 08:28:53;;;;;;;8.10;6.27;;;0.90;99.90;;;;;;6119885;23;20419;-71
2023/02/07 08:31:21;;;;;;;15.13;8.00;;;1.20;99.90;;;;;;6120924;23;20439;-71
2023/02/07 08:33:48;;;;;;;15.23;7.20;;;1.80;99.90;;;;;;6117617;23;20394;-70
2023/02/07 08:36:15;;;;;;;13.63;6.03;;;2.80;99.90;;;;;;6118676;23;21227;-70
2023/02/07 08:38:42;;;;;;;12.10;6.80;;;3.50;99.90;;;;;;6121036;23;20403;-72
2023/02/07 08:41:09;;;;;;;8.37;5.10;;;4.20;99.90;;;;;;6119772;23;20416;-71
2023/02/07 08:43:38;;;;;;;8.87;5.43;;;4.80;99.90;;;;;;6120495;23;20448;-71
2023/02/07 08:46:05;;;;;;;9.30;4.73;;;5.20;99.90;;;;;;6121470;23;20381;-71
2023/02/07 08:48:32;;;;;;;7.57;5.00;;;5.50;99.90;;;;;;6118784;23;20440;-71
2023/02/07 08:51:04;;;;;;;13.40;5.27;;;5.50;99.90;;;;;;6121271;23;20420;-71
2023/02/07 08:53:31;;;;;;;11.27;5.27;;;5.20;99.90;;;;;;6118463;23;20424;-71
2023/02/07 08:55:57;;;;;;;11.17;6.70;;;5.10;99.90;;;;;;6121139;23;20419;-71
2023/02/07 08:58:25;;;;;;;11.90;4.07;;;4.90;99.90;;;;;;6121643;23;20435;-71
2023/02/07 09:00:53;;;;;;;9.23;5.03;;;5.00;99.90;;;;;;6117235;23;20987;-71
2023/02/07 09:03:20;;;;;;;4.43;4.00;;;5.00;99.90;;;;;;6121792;23;20452;-71
2023/02/07 09:05:47;;;;;;;6.73;4.50;;;4.90;99.90;;;;;;6122554;23;20423;-70
2023/02/07 09:08:14;;;;;;;4.70;4.07;;;5.30;99.90;;;;;;6120932;23;20417;-70
2023/02/07 09:10:41;;;;;;;6.93;4.57;;;6.40;99.90;;;;;;6120333;23;20518;-70
2023/02/07 09:13:08;;;;;;;7.00;4.60;;;7.60;99.90;;;;;;6119784;23;20998;-70
2023/02/07 09:15:35;;;;;;;7.40;5.90;;;8.80;99.90;;;;;;6121491;23;20476;-70
2023/02/07 09:18:04;;;;;;;7.17;4.17;;;9.80;99.90;;;;;;6122344;23;20469;-70
2023/02/07 09:20:32;;;;;;;10.83;5.40;;;10.40;99.90;;;;;;6122754;23;20910;-69
2023/02/07 09:25:40;;;;;;;12.67;6.17;;;9.80;99.90;;;;;;6117214;23;20946;-70
2023/02/07 09:28:07;;;;;;;7.80;5.20;;;8.30;99.90;;;;;;6119497;23;20478;-69
2023/02/07 09:30:34;;;;;;;4.90;3.90;;;7.80;99.90;;;;;;6118397;23;20435;-70
2023/02/07 09:33:01;;;;;;;7.33;5.07;;;7.50;99.90;;;;;;6117221;23;20801;-69
2023/02/07 09:35:29;;;;;;;7.63;4.70;;;7.20;99.90;;;;;;6121409;23;20385;-70
2023/02/07 09:37:57;;;;;;;5.47;4.57;;;7.40;99.90;;;;;;6121374;23;20411;-69
2023/02/07 09:40:24;;;;;;;3.57;2.60;;;8.30;99.90;;;;;;6119461;23;20410;-72
2023/02/07 09:42:57;;;;;;;6.53;5.13;;;9.50;99.90;;;;;;6120233;23;20441;-70
2023/02/07 09:45:27;;;;;;;7.40;4.07;;;10.00;99.90;;;;;;6124474;23;20395;-70
2023/02/07 09:48:02;;;;;;;8.10;4.90;;;10.60;99.90;;;;;;6130391;23;20468;-70
2023/02/07 09:50:32;;;;;;;8.10;4.47;;;10.30;99.90;;;;;;6120805;23;20517;-70
2023/02/07 09:53:04;;;;;;;6.03;3.70;;;10.60;99.90;;;;;;6120869;23;21067;-70
2023/02/07 09:55:39;;;;;;;11.40;5.50;;;10.60;99.90;;;;;;6119674;23;20403;-70
2023/02/07 09:58:12;;;;;;;8.50;6.20;;;10.20;99.90;;;;;;6121050;23;20416;-70
2023/02/07 10:00:42;;;;;;;8.83;4.57;;;9.80;99.90;;;;;;6119027;23;20478;-70
2023/02/07 10:03:15;;;;;;;5.87;3.40;;;10.10;99.90;;;;;;6120295;23;20418;-70
2023/02/07 10:05:48;;;;;;;4.77;3.60;;;11.20;99.90;;;;;;6120703;23;20455;-70
2023/02/07 10:08:17;;;;;;;7.33;3.83;;;11.60;99.90;;;;;;6119439;23;20465;-70
2023/02/07 10:10:46;;;;;;;6.13;4.53;;;11.20;99.90;;;;;;6121450;23;20439;-71
2023/02/07 10:13:27;;;;;;;4.30;3.90;;;12.00;99.90;;;;;;6116323;23;20415;-70
2023/02/07 10:16:13;;;;;;;4.40;4.00;;;12.90;99.90;;;;;;6119935;23;20429;-70
2023/02/07 10:18:47;;;;;;;5.03;3.87;;;14.00;97.10;;;;;;6119056;23;20728;-71
2023/02/07 10:21:25;;;;;;;12.43;6.47;;;14.20;95.30;;;;;;6120333;23;20474;-70
2023/02/07 10:24:15;;;;;;;7.00;5.80;;;14.10;94.20;;;;;;6120985;23;20816;-70
2023/02/07 10:26:48;;;;;;;5.17;3.93;;;13.60;94.50;;;;;;6121549;23;20440;-70
2023/02/07 10:29:33;;;;;;;6.23;3.77;;;13.40;94.40;;;;;;6120314;23;20958;-71
2023/02/07 10:32:08;;;;;;;5.87;4.37;;;14.10;93.40;;;;;;6114695;23;20419;-70
2023/02/07 10:34:39;;;;;;;5.70;3.33;;;14.30;93.50;;;;;;6121228;23;20494;-70
2023/02/07 10:37:18;;;;;;;5.17;3.93;;;14.40;92.50;;;;;;6120836;23;20402;-71
2023/02/07 10:39:51;;;;;;;6.50;3.50;;;15.20;92.50;;;;;;6119579;23;20456;-70
2023/02/07 10:42:19;;;;;;;7.13;4.33;;;15.80;90.00;;;;;;6118945;23;20458;-70
2023/02/07 10:44:47;;;;;;;5.07;3.33;;;15.80;89.40;;;;;;6119312;23;20494;-70
2023/02/07 10:47:17;;;;;;;4.43;3.97;;;15.80;87.10;;;;;;6117030;23;20561;-70
2023/02/07 10:49:46;;;;;;;4.73;3.60;;;15.60;85.70;;;;;;6118813;23;20411;-70
2023/02/07 10:52:28;;;;;;;5.90;4.80;;;15.40;85.80;;;;;;6120955;23;20464;-70
2023/02/07 10:54:57;;;;;;;4.97;4.57;;;15.70;86.70;;;;;;6121025;23;20395;-71
2023/02/07 10:57:26;;;;;;;4.30;3.90;;;16.10;82.40;;;;;;6119811;23;20780;-71
2023/02/07 10:59:59;;;;;;;8.73;3.23;;;16.20;82.20;;;;;;6119665;23;20415;-70
2023/02/07 11:02:50;;;;;;;3.10;2.50;;;15.20;77.20;;;;;;6118716;23;20458;-71
2023/02/07 11:05:31;;;;;;;3.20;2.40;;;15.20;81.00;;;;;;6120449;23;20397;-70
2023/02/07 11:08:02;;;;;;;5.33;4.33;;;15.30;77.40;;;;;;6115312;23;20422;-71
2023/02/07 11:10:34;;;;;;;3.53;2.90;;;15.50;78.90;;;;;;6119572;23;20827;-70
2023/02/07 11:13:01;;;;;;;5.17;3.30;;;15.30;76.50;;;;;;6121406;23;20427;-71
2023/02/07 11:15:48;;;;;;;4.33;3.40;;;14.80;78.20;;;;;;6120165;23;20903;-71
2023/02/07 11:18:32;;;;;;;3.27;2.57;;;15.30;78.20;;;;;;6092093;23;20437;-71
2023/02/07 11:20:59;;;;;;;3.07;2.60;;;15.60;73.70;;;;;;6121286;23;20459;-70
2023/02/07 11:23:28;;;;;;;5.30;3.97;;;16.00;74.00;;;;;;6120810;23;20407;-71
2023/02/07 11:25:56;;;;;;;5.30;2.83;;;16.60;74.50;;;;;;6121605;23;20398;-73
2023/02/07 11:28:26;;;;;;;4.57;3.80;;;17.00;70.80;;;;;;6120534;23;20498;-71
2023/02/07 11:30:56;;;;;;;3.93;3.43;;;17.10;71.00;;;;;;6119328;23;20503;-71
2023/02/07 11:33:28;;;;;;;6.80;3.20;;;17.70;68.00;;;;;;6121662;23;20479;-70
2023/02/07 11:36:03;;;;;;;4.77;3.50;;;18.00;66.00;;;;;;6119555;23;20399;-71
2023/02/07 11:38:38;;;;;;;5.83;3.60;;;18.40;65.10;;;;;;6115276;23;20411;-70
2023/02/07 11:41:06;;;;;;;3.30;3.00;;;18.40;62.50;;;;;;6121323;23;20429;-71
2023/02/07 11:43:35;;;;;;;4.93;3.50;;;18.00;63.70;;;;;;6119361;23;20414;-71
2023/02/07 11:46:07;;;;;;;4.67;3.17;;;17.80;61.00;;;;;;6118895;23;20470;-71
2023/02/07 11:48:36;;;;;;;5.57;4.13;;;17.30;61.30;;;;;;6119625;23;20405;-71
2023/02/07 11:51:06;;;;;;;3.80;3.40;;;17.30;62.50;;;;;;6120850;23;20450;-71
2023/02/07 11:53:39;;;;;;;4.17;3.40;;;17.00;63.40;;;;;;6121967;23;20741;-71
2023/02/07 11:56:07;;;;;;;3.70;3.40;;;18.00;63.90;;;;;;6119030;23;20482;-71
2023/02/07 11:58:37;;;;;;;4.23;2.80;;;18.60;62.10;;;;;;6123212;23;20395;-71
2023/02/07 12:01:06;;;;;;;4.67;3.97;;;18.70;58.20;;;;;;6120973;23;20784;-71
2023/02/07 12:03:40;;;;;;;7.67;5.63;;;18.00;58.20;;;;;;6122231;23;20447;-69
2023/02/07 12:06:13;;;;;;;4.77;3.33;;;17.50;58.20;;;;;;6121739;23;20430;-70
2023/02/07 12:08:43;;;;;;;4.43;3.47;;;17.70;58.20;;;;;;6119423;23;20395;-69
2023/02/07 12:11:17;;;;;;;3.63;2.67;;;18.10;58.20;;;;;;6120704;23;20474;-71
2023/02/07 12:13:49;;;;;;;4.27;3.67;;;17.70;58.00;;;;;;6123282;23;20984;-70
2023/02/07 12:16:21;;;;;;;6.07;3.77;;;17.90;58.10;;;;;;6120996;23;20395;-70
2023/02/07 12:18:53;;;;;;;6.90;5.50;;;18.60;57.70;;;;;;6121017;23;20442;-72
2023/02/07 12:21:24;;;;;;;4.40;3.67;;;19.40;55.90;;;;;;6120775;23;20454;-70
2023/02/07 12:23:59;;;;;;;4.40;3.17;;;19.50;55.10;;;;;;6120151;23;20442;-70
2023/02/07 12:26:30;;;;;;;4.10;3.30;;;20.00;52.70;;;;;;6120573;23;20418;-71
2023/02/07 12:29:17;;;;;;;3.43;2.90;;;19.90;53.70;;;;;;6120005;23;20430;-70
2023/02/07 12:31:55;;;;;;;3.20;2.93;;;20.10;52.50;;;;;;6120328;23;20784;-70
2023/02/07 12:34:30;;;;;;;3.80;3.33;;;19.70;53.50;;;;;;6120800;23;20947;-70
2023/02/07 12:37:04;;;;;;;5.10;3.30;;;19.80;52.40;;;;;;6121018;23;21042;-69
2023/02/07 12:39:39;;;;;;;5.60;3.57;;;18.80;52.30;;;;;;6121146;23;20407;-70
2023/02/07 12:42:21;;;;;;;5.77;3.60;;;18.00;53.90;;;;;;6120820;23;20537;-70
2023/02/07 12:44:53;;;;;;;9.50;4.93;;;18.20;53.10;;;;;;6121577;23;20402;-70
2023/02/07 12:47:30;;;;;;;6.43;4.90;;;18.70;53.00;;;;;;6121960;23;20647;-69
2023/02/07 12:50:14;;;;;;;12.63;5.60;;;18.70;53.70;;;;;;6116799;23;20394;-69
2023/02/07 12:52:51;;;;;;;12.07;5.77;;;19.60;53.20;;;;;;6121356;23;20501;-69
2023/02/07 12:55:31;;;;;;;15.80;6.70;;;19.60;51.30;;;;;;6120817;23;20485;-70
2023/02/07 12:58:15;;;;;;;4.73;3.60;;;19.50;51.90;;;;;;6120709;23;20513;-70
2023/02/07 13:00:55;;;;;;;3.50;3.17;;;20.10;51.60;;;;;;6119725;23;20392;-70
2023/02/07 13:03:37;;;;;;;15.90;4.53;;;20.10;50.10;;;;;;6122748;23;20391;-70
2023/02/07 13:06:15;;;;;;;4.47;4.07;;;20.10;50.80;;;;;;6117411;23;20745;-70
2023/02/07 13:08:51;;;;;;;5.50;3.77;;;19.30;51.00;;;;;;6121083;23;20661;-70